sensor_id;sensor_type;location;lat;lon;timestamp;P1;durP1;ratioP1;P2;durP2;ratioP2
31798;SDS011;18374;51.136;3.502;2022-08-23T00:01:58;12.30;;;6.32;;
31798;SDS011;18374;51.136;3.502;2022-08-23T00:04:34;16.27;;;7.32;;
31798;SDS011;18374;51.136;3.502;2022-08-23T00:07:26;15.05;;;6.93;;
31798;SDS011;18374;51.136;3.502;2022-08-23T00:09:55;15.15;;;7.43;;
31798;SDS011;18374;51.136;3.502;2022-08-23T00:12:25;13.13;;;7.60;;
31798;SDS011;18374;51.136;3.502;2022-08-23T00:14:53;12.63;;;7.00;;
31798;SDS011;18374;51.136;3.502;2022-08-23T00:17:24;12.82;;;7.70;;
31798;SDS011;18374;51.136;3.502;2022-08-23T00:20:05;9.15;;;6.15;;
31798;SDS011;18374;51.136;3.502;2022-08-23T00:25:06;13.13;;;7.93;;
31798;SDS011;18374;51.136;3.502;2022-08-23T00:27:36;13.43;;;7.63;;
31798;SDS011;18374;51.136;3.502;2022-08-23T00:30:05;12.18;;;7.70;;
31798;SDS011;18374;51.136;3.502;2022-08-23T00:32:36;13.80;;;7.50;;
31798;SDS011;18374;51.136;3.502;2022-08-23T00:35:07;16.13;;;9.55;;
31798;SDS011;18374;51.136;3.502;2022-08-23T00:37:37;13.55;;;8.02;;
31798;SDS011;18374;51.136;3.502;2022-08-23T00:40:06;13.40;;;7.45;;
31798;SDS011;18374;51.136;3.502;2022-08-23T00:49:10;11.95;;;7.28;;
31798;SDS011;18374;51.136;3.502;2022-08-23T00:51:43;19.25;;;8.10;;
31798;SDS011;18374;51.136;3.502;2022-08-23T00:54:20;13.32;;;7.20;;
31798;SDS011;18374;51.136;3.502;2022-08-23T00:56:52;12.38;;;7.43;;
31798;SDS011;18374;51.136;3.502;2022-08-23T00:59:22;13.35;;;7.75;;
31798;SDS011;18374;51.136;3.502;2022-08-23T01:01:51;11.43;;;8.43;;
31798;SDS011;18374;51.136;3.502;2022-08-23T01:04:19;9.02;;;6.82;;
31798;SDS011;18374;51.136;3.502;2022-08-23T01:06:48;14.93;;;7.65;;
31798;SDS011;18374;51.136;3.502;2022-08-23T01:09:24;14.13;;;9.45;;
31798;SDS011;18374;51.136;3.502;2022-08-23T01:12:02;14.13;;;7.50;;
31798;SDS011;18374;51.136;3.502;2022-08-23T01:15:04;11.07;;;8.23;;
31798;SDS011;18374;51.136;3.502;2022-08-23T01:17:45;11.83;;;8.17;;
31798;SDS011;18374;51.136;3.502;2022-08-23T01:20:20;12.55;;;7.60;;
31798;SDS011;18374;51.136;3.502;2022-08-23T01:22:58;13.52;;;9.07;;
31798;SDS011;18374;51.136;3.502;2022-08-23T01:25:33;13.60;;;9.63;;
31798;SDS011;18374;51.136;3.502;2022-08-23T01:28:01;15.23;;;9.18;;
31798;SDS011;18374;51.136;3.502;2022-08-23T01:30:30;16.00;;;8.52;;
31798;SDS011;18374;51.136;3.502;2022-08-23T01:33:01;14.48;;;8.65;;
31798;SDS011;18374;51.136;3.502;2022-08-23T01:35:35;11.73;;;9.00;;
31798;SDS011;18374;51.136;3.502;2022-08-23T01:38:11;10.07;;;7.32;;
31798;SDS011;18374;51.136;3.502;2022-08-23T01:40:41;18.55;;;9.88;;
31798;SDS011;18374;51.136;3.502;2022-08-23T01:43:11;12.23;;;8.02;;
31798;SDS011;18374;51.136;3.502;2022-08-23T01:45:41;12.68;;;7.95;;
31798;SDS011;18374;51.136;3.502;2022-08-23T01:48:11;12.80;;;9.35;;
31798;SDS011;18374;51.136;3.502;2022-08-23T01:50:40;12.68;;;8.60;;
31798;SDS011;18374;51.136;3.502;2022-08-23T01:53:07;19.45;;;10.10;;
31798;SDS011;18374;51.136;3.502;2022-08-23T01:55:39;16.08;;;9.13;;
31798;SDS011;18374;51.136;3.502;2022-08-23T01:58:08;10.38;;;8.13;;
31798;SDS011;18374;51.136;3.502;2022-08-23T02:00:38;11.82;;;8.65;;
31798;SDS011;18374;51.136;3.502;2022-08-23T02:03:07;10.98;;;8.55;;
31798;SDS011;18374;51.136;3.502;2022-08-23T02:05:39;15.63;;;9.60;;
31798;SDS011;18374;51.136;3.502;2022-08-23T02:08:10;12.40;;;8.60;;
31798;SDS011;18374;51.136;3.502;2022-08-23T02:10:58;16.73;;;10.02;;
31798;SDS011;18374;51.136;3.502;2022-08-23T02:13:26;19.15;;;10.10;;
31798;SDS011;18374;51.136;3.502;2022-08-23T02:15:55;16.08;;;9.65;;
31798;SDS011;18374;51.136;3.502;2022-08-23T02:18:25;18.38;;;10.10;;
31798;SDS011;18374;51.136;3.502;2022-08-23T02:20:53;12.18;;;9.05;;
31798;SDS011;18374;51.136;3.502;2022-08-23T02:23:22;11.50;;;8.73;;
31798;SDS011;18374;51.136;3.502;2022-08-23T02:25:50;11.10;;;7.32;;
31798;SDS011;18374;51.136;3.502;2022-08-23T02:28:19;13.98;;;8.80;;
31798;SDS011;18374;51.136;3.502;2022-08-23T02:30:50;17.80;;;9.77;;
31798;SDS011;18374;51.136;3.502;2022-08-23T02:33:19;15.40;;;9.55;;
31798;SDS011;18374;51.136;3.502;2022-08-23T02:35:48;14.93;;;10.25;;
31798;SDS011;18374;51.136;3.502;2022-08-23T02:38:16;16.83;;;9.75;;
31798;SDS011;18374;51.136;3.502;2022-08-23T02:40:45;20.08;;;9.90;;
31798;SDS011;18374;51.136;3.502;2022-08-23T02:43:19;17.42;;;10.35;;
31798;SDS011;18374;51.136;3.502;2022-08-23T02:45:47;17.42;;;10.57;;
31798;SDS011;18374;51.136;3.502;2022-08-23T02:48:17;18.05;;;10.52;;
31798;SDS011;18374;51.136;3.502;2022-08-23T02:51:00;19.02;;;10.63;;
31798;SDS011;18374;51.136;3.502;2022-08-23T02:53:32;16.15;;;10.10;;
31798;SDS011;18374;51.136;3.502;2022-08-23T02:56:04;11.93;;;8.52;;
31798;SDS011;18374;51.136;3.502;2022-08-23T02:58:48;13.20;;;7.82;;
31798;SDS011;18374;51.136;3.502;2022-08-23T03:01:24;14.68;;;9.27;;
31798;SDS011;18374;51.136;3.502;2022-08-23T03:04:01;14.63;;;10.15;;
31798;SDS011;18374;51.136;3.502;2022-08-23T03:06:31;18.42;;;12.02;;
31798;SDS011;18374;51.136;3.502;2022-08-23T03:08:59;18.05;;;11.80;;
31798;SDS011;18374;51.136;3.502;2022-08-23T03:11:27;17.52;;;11.32;;
31798;SDS011;18374;51.136;3.502;2022-08-23T03:13:55;15.88;;;10.13;;
31798;SDS011;18374;51.136;3.502;2022-08-23T03:16:23;16.45;;;10.48;;
31798;SDS011;18374;51.136;3.502;2022-08-23T03:18:51;13.52;;;9.98;;
31798;SDS011;18374;51.136;3.502;2022-08-23T03:21:20;16.45;;;9.88;;
31798;SDS011;18374;51.136;3.502;2022-08-23T03:23:48;23.15;;;12.00;;
31798;SDS011;18374;51.136;3.502;2022-08-23T03:26:16;17.52;;;11.52;;
31798;SDS011;18374;51.136;3.502;2022-08-23T03:28:44;17.00;;;10.55;;
31798;SDS011;18374;51.136;3.502;2022-08-23T03:31:13;16.65;;;12.50;;
31798;SDS011;18374;51.136;3.502;2022-08-23T03:33:52;16.17;;;10.70;;
31798;SDS011;18374;51.136;3.502;2022-08-23T03:36:20;18.65;;;12.27;;
31798;SDS011;18374;51.136;3.502;2022-08-23T03:41:24;18.45;;;11.95;;
31798;SDS011;18374;51.136;3.502;2022-08-23T03:43:53;16.95;;;12.45;;
31798;SDS011;18374;51.136;3.502;2022-08-23T03:46:21;19.10;;;12.23;;
31798;SDS011;18374;51.136;3.502;2022-08-23T03:48:55;17.50;;;12.38;;
31798;SDS011;18374;51.136;3.502;2022-08-23T03:51:29;15.20;;;10.75;;
31798;SDS011;18374;51.136;3.502;2022-08-23T03:53:59;16.52;;;11.10;;
31798;SDS011;18374;51.136;3.502;2022-08-23T03:56:29;16.27;;;11.13;;
31798;SDS011;18374;51.136;3.502;2022-08-23T03:59:04;17.50;;;10.68;;
31798;SDS011;18374;51.136;3.502;2022-08-23T04:01:37;23.02;;;12.82;;
31798;SDS011;18374;51.136;3.502;2022-08-23T04:04:05;19.73;;;12.80;;
31798;SDS011;18374;51.136;3.502;2022-08-23T04:06:38;16.20;;;11.23;;
31798;SDS011;18374;51.136;3.502;2022-08-23T04:09:05;13.52;;;9.73;;
31798;SDS011;18374;51.136;3.502;2022-08-23T04:11:33;17.75;;;11.30;;
31798;SDS011;18374;51.136;3.502;2022-08-23T04:14:05;14.90;;;11.02;;
31798;SDS011;18374;51.136;3.502;2022-08-23T04:16:33;20.73;;;12.88;;
31798;SDS011;18374;51.136;3.502;2022-08-23T04:19:04;20.85;;;11.70;;
31798;SDS011;18374;51.136;3.502;2022-08-23T04:21:37;17.63;;;11.50;;
31798;SDS011;18374;51.136;3.502;2022-08-23T04:24:09;14.85;;;10.68;;
31798;SDS011;18374;51.136;3.502;2022-08-23T04:26:37;16.30;;;10.40;;
31798;SDS011;18374;51.136;3.502;2022-08-23T04:29:05;16.25;;;11.27;;
31798;SDS011;18374;51.136;3.502;2022-08-23T04:31:36;19.42;;;11.93;;
31798;SDS011;18374;51.136;3.502;2022-08-23T04:34:06;16.85;;;10.82;;
31798;SDS011;18374;51.136;3.502;2022-08-23T04:36:36;24.25;;;11.50;;
31798;SDS011;18374;51.136;3.502;2022-08-23T04:39:21;17.67;;;10.32;;
31798;SDS011;18374;51.136;3.502;2022-08-23T04:41:49;12.43;;;9.52;;
31798;SDS011;18374;51.136;3.502;2022-08-23T04:44:40;14.55;;;10.77;;
31798;SDS011;18374;51.136;3.502;2022-08-23T04:47:08;16.23;;;11.63;;
31798;SDS011;18374;51.136;3.502;2022-08-23T04:49:36;18.70;;;11.65;;
31798;SDS011;18374;51.136;3.502;2022-08-23T04:52:05;22.98;;;12.40;;
31798;SDS011;18374;51.136;3.502;2022-08-23T04:54:34;14.30;;;11.07;;
31798;SDS011;18374;51.136;3.502;2022-08-23T04:57:25;20.52;;;11.85;;
31798;SDS011;18374;51.136;3.502;2022-08-23T04:59:52;18.77;;;11.73;;
31798;SDS011;18374;51.136;3.502;2022-08-23T05:02:21;16.30;;;11.75;;
31798;SDS011;18374;51.136;3.502;2022-08-23T05:04:54;18.10;;;11.57;;
31798;SDS011;18374;51.136;3.502;2022-08-23T05:07:22;17.15;;;11.80;;
31798;SDS011;18374;51.136;3.502;2022-08-23T05:10:10;19.92;;;11.13;;
31798;SDS011;18374;51.136;3.502;2022-08-23T05:12:43;19.83;;;11.65;;
31798;SDS011;18374;51.136;3.502;2022-08-23T05:15:12;16.10;;;10.02;;
31798;SDS011;18374;51.136;3.502;2022-08-23T05:17:45;19.40;;;12.18;;
31798;SDS011;18374;51.136;3.502;2022-08-23T05:20:13;16.17;;;11.38;;
31798;SDS011;18374;51.136;3.502;2022-08-23T05:22:42;19.02;;;11.52;;
31798;SDS011;18374;51.136;3.502;2022-08-23T05:25:20;18.27;;;12.40;;
31798;SDS011;18374;51.136;3.502;2022-08-23T05:27:54;19.23;;;12.13;;
31798;SDS011;18374;51.136;3.502;2022-08-23T05:30:22;20.58;;;11.65;;
31798;SDS011;18374;51.136;3.502;2022-08-23T05:32:50;22.50;;;12.63;;
31798;SDS011;18374;51.136;3.502;2022-08-23T05:35:18;15.50;;;11.70;;
31798;SDS011;18374;51.136;3.502;2022-08-23T05:37:46;16.15;;;11.63;;
31798;SDS011;18374;51.136;3.502;2022-08-23T05:40:14;20.50;;;12.10;;
31798;SDS011;18374;51.136;3.502;2022-08-23T05:42:56;20.90;;;11.80;;
31798;SDS011;18374;51.136;3.502;2022-08-23T05:45:24;17.88;;;12.40;;
31798;SDS011;18374;51.136;3.502;2022-08-23T05:47:52;27.15;;;13.88;;
31798;SDS011;18374;51.136;3.502;2022-08-23T05:50:47;23.02;;;12.68;;
31798;SDS011;18374;51.136;3.502;2022-08-23T05:53:15;23.25;;;11.10;;
31798;SDS011;18374;51.136;3.502;2022-08-23T05:55:45;19.70;;;11.80;;
31798;SDS011;18374;51.136;3.502;2022-08-23T05:58:17;24.27;;;11.70;;
31798;SDS011;18374;51.136;3.502;2022-08-23T06:00:45;17.70;;;11.38;;
31798;SDS011;18374;51.136;3.502;2022-08-23T06:03:13;18.50;;;11.77;;
31798;SDS011;18374;51.136;3.502;2022-08-23T06:05:41;16.83;;;11.77;;
31798;SDS011;18374;51.136;3.502;2022-08-23T06:08:10;20.85;;;11.38;;
31798;SDS011;18374;51.136;3.502;2022-08-23T06:10:38;17.15;;;10.60;;
31798;SDS011;18374;51.136;3.502;2022-08-23T06:13:24;14.93;;;10.25;;
31798;SDS011;18374;51.136;3.502;2022-08-23T06:15:53;15.32;;;10.30;;
31798;SDS011;18374;51.136;3.502;2022-08-23T06:18:22;16.98;;;11.80;;
31798;SDS011;18374;51.136;3.502;2022-08-23T06:23:41;17.17;;;10.77;;
31798;SDS011;18374;51.136;3.502;2022-08-23T06:26:11;16.45;;;10.65;;
31798;SDS011;18374;51.136;3.502;2022-08-23T06:28:53;19.10;;;11.15;;
31798;SDS011;18374;51.136;3.502;2022-08-23T06:31:23;17.20;;;11.25;;
31798;SDS011;18374;51.136;3.502;2022-08-23T06:37:17;22.45;;;11.18;;
31798;SDS011;18374;51.136;3.502;2022-08-23T06:40:00;17.00;;;10.18;;
31798;SDS011;18374;51.136;3.502;2022-08-23T06:42:56;21.20;;;10.88;;
31798;SDS011;18374;51.136;3.502;2022-08-23T06:45:31;15.94;;;12.28;;
31798;SDS011;18374;51.136;3.502;2022-08-23T06:48:02;16.73;;;11.55;;
31798;SDS011;18374;51.136;3.502;2022-08-23T06:50:31;15.93;;;11.63;;
31798;SDS011;18374;51.136;3.502;2022-08-23T06:53:17;16.42;;;10.30;;
31798;SDS011;18374;51.136;3.502;2022-08-23T06:56:09;17.88;;;11.43;;
31798;SDS011;18374;51.136;3.502;2022-08-23T06:58:54;19.60;;;11.05;;
31798;SDS011;18374;51.136;3.502;2022-08-23T07:04:37;18.80;;;9.38;;
31798;SDS011;18374;51.136;3.502;2022-08-23T07:07:22;22.38;;;10.00;;
31798;SDS011;18374;51.136;3.502;2022-08-23T07:10:04;19.13;;;9.68;;
31798;SDS011;18374;51.136;3.502;2022-08-23T07:12:36;22.13;;;9.35;;
31798;SDS011;18374;51.136;3.502;2022-08-23T07:15:09;19.38;;;10.07;;
31798;SDS011;18374;51.136;3.502;2022-08-23T07:17:42;15.05;;;10.05;;
31798;SDS011;18374;51.136;3.502;2022-08-23T07:20:09;15.45;;;9.30;;
31798;SDS011;18374;51.136;3.502;2022-08-23T07:22:41;18.48;;;10.18;;
31798;SDS011;18374;51.136;3.502;2022-08-23T07:25:13;22.73;;;10.07;;
31798;SDS011;18374;51.136;3.502;2022-08-23T07:27:46;18.30;;;10.20;;
31798;SDS011;18374;51.136;3.502;2022-08-23T07:30:18;20.75;;;8.90;;
31798;SDS011;18374;51.136;3.502;2022-08-23T07:32:46;16.48;;;10.18;;
31798;SDS011;18374;51.136;3.502;2022-08-23T07:35:21;22.23;;;9.48;;
31798;SDS011;18374;51.136;3.502;2022-08-23T07:37:52;17.17;;;9.90;;
31798;SDS011;18374;51.136;3.502;2022-08-23T07:40:20;19.92;;;9.90;;
31798;SDS011;18374;51.136;3.502;2022-08-23T07:42:55;18.52;;;10.07;;
31798;SDS011;18374;51.136;3.502;2022-08-23T07:45:23;23.00;;;10.25;;
31798;SDS011;18374;51.136;3.502;2022-08-23T07:47:56;17.80;;;9.02;;
31798;SDS011;18374;51.136;3.502;2022-08-23T07:50:24;20.40;;;8.75;;
31798;SDS011;18374;51.136;3.502;2022-08-23T07:52:58;18.83;;;9.98;;
31798;SDS011;18374;51.136;3.502;2022-08-23T07:55:29;18.85;;;9.63;;
31798;SDS011;18374;51.136;3.502;2022-08-23T07:58:12;18.77;;;10.40;;
31798;SDS011;18374;51.136;3.502;2022-08-23T08:00:50;18.98;;;10.25;;
31798;SDS011;18374;51.136;3.502;2022-08-23T08:03:35;21.05;;;9.30;;
31798;SDS011;18374;51.136;3.502;2022-08-23T08:06:29;19.25;;;8.70;;
31798;SDS011;18374;51.136;3.502;2022-08-23T08:09:01;17.17;;;8.93;;
31798;SDS011;18374;51.136;3.502;2022-08-23T08:11:32;16.77;;;8.85;;
31798;SDS011;18374;51.136;3.502;2022-08-23T08:14:04;15.93;;;8.05;;
31798;SDS011;18374;51.136;3.502;2022-08-23T08:16:40;19.63;;;8.52;;
31798;SDS011;18374;51.136;3.502;2022-08-23T08:19:17;14.95;;;7.95;;
31798;SDS011;18374;51.136;3.502;2022-08-23T08:22:11;17.45;;;8.90;;
31798;SDS011;18374;51.136;3.502;2022-08-23T08:25:00;13.40;;;8.18;;
31798;SDS011;18374;51.136;3.502;2022-08-23T08:27:29;16.67;;;6.97;;
31798;SDS011;18374;51.136;3.502;2022-08-23T08:30:03;11.23;;;7.22;;
31798;SDS011;18374;51.136;3.502;2022-08-23T08:32:32;12.52;;;8.18;;
31798;SDS011;18374;51.136;3.502;2022-08-23T08:35:01;14.65;;;9.00;;
31798;SDS011;18374;51.136;3.502;2022-08-23T08:37:30;13.15;;;7.40;;
31798;SDS011;18374;51.136;3.502;2022-08-23T08:40:00;12.38;;;6.40;;
31798;SDS011;18374;51.136;3.502;2022-08-23T08:45:22;9.77;;;5.70;;
31798;SDS011;18374;51.136;3.502;2022-08-23T08:48:04;13.65;;;6.05;;
31798;SDS011;18374;51.136;3.502;2022-08-23T08:50:47;10.15;;;6.32;;
31798;SDS011;18374;51.136;3.502;2022-08-23T08:53:36;9.45;;;5.97;;
31798;SDS011;18374;51.136;3.502;2022-08-23T08:56:23;9.98;;;6.00;;
31798;SDS011;18374;51.136;3.502;2022-08-23T08:59:22;11.07;;;5.60;;
31798;SDS011;18374;51.136;3.502;2022-08-23T09:02:01;10.00;;;5.50;;
31798;SDS011;18374;51.136;3.502;2022-08-23T09:04:34;13.25;;;6.80;;
31798;SDS011;18374;51.136;3.502;2022-08-23T09:07:10;12.55;;;6.20;;
31798;SDS011;18374;51.136;3.502;2022-08-23T09:10:09;10.73;;;4.63;;
31798;SDS011;18374;51.136;3.502;2022-08-23T09:16:13;8.18;;;4.07;;
31798;SDS011;18374;51.136;3.502;2022-08-23T09:22:01;7.97;;;3.13;;
31798;SDS011;18374;51.136;3.502;2022-08-23T09:24:40;5.83;;;3.33;;
31798;SDS011;18374;51.136;3.502;2022-08-23T09:27:14;6.13;;;2.58;;
31798;SDS011;18374;51.136;3.502;2022-08-23T09:29:50;3.08;;;2.20;;
31798;SDS011;18374;51.136;3.502;2022-08-23T09:32:29;4.72;;;1.85;;
31798;SDS011;18374;51.136;3.502;2022-08-23T09:35:11;4.75;;;2.15;;
31798;SDS011;18374;51.136;3.502;2022-08-23T09:37:56;4.07;;;1.98;;
31798;SDS011;18374;51.136;3.502;2022-08-23T09:43:17;3.25;;;1.98;;
31798;SDS011;18374;51.136;3.502;2022-08-23T09:53:34;7.05;;;1.52;;
31798;SDS011;18374;51.136;3.502;2022-08-23T09:56:10;3.30;;;1.38;;
31798;SDS011;18374;51.136;3.502;2022-08-23T09:58:45;2.33;;;1.20;;
31798;SDS011;18374;51.136;3.502;2022-08-23T10:01:28;3.22;;;1.10;;
31798;SDS011;18374;51.136;3.502;2022-08-23T10:04:12;1.20;;;1.00;;
31798;SDS011;18374;51.136;3.502;2022-08-23T10:07:23;2.35;;;0.98;;
31798;SDS011;18374;51.136;3.502;2022-08-23T10:12:51;1.50;;;0.60;;
31798;SDS011;18374;51.136;3.502;2022-08-23T10:15:25;1.38;;;0.65;;
31798;SDS011;18374;51.136;3.502;2022-08-23T10:24:34;1.23;;;1.05;;
31798;SDS011;18374;51.136;3.502;2022-08-23T10:27:21;1.17;;;1.00;;
31798;SDS011;18374;51.136;3.502;2022-08-23T10:30:32;2.78;;;1.48;;
31798;SDS011;18374;51.136;3.502;2022-08-23T10:33:18;5.38;;;1.35;;
31798;SDS011;18374;51.136;3.502;2022-08-23T10:36:27;3.65;;;1.80;;
31798;SDS011;18374;51.136;3.502;2022-08-23T10:39:14;2.60;;;1.50;;
31798;SDS011;18374;51.136;3.502;2022-08-23T10:42:03;1.50;;;1.40;;
31798;SDS011;18374;51.136;3.502;2022-08-23T10:47:35;1.60;;;1.50;;
31798;SDS011;18374;51.136;3.502;2022-08-23T10:50:52;1.20;;;1.10;;
31798;SDS011;18374;51.136;3.502;2022-08-23T10:56:16;2.50;;;2.00;;
31798;SDS011;18374;51.136;3.502;2022-08-23T10:58:58;4.35;;;3.10;;
31798;SDS011;18374;51.136;3.502;2022-08-23T11:07:26;2.13;;;1.73;;
31798;SDS011;18374;51.136;3.502;2022-08-23T11:10:29;3.05;;;1.20;;
31798;SDS011;18374;51.136;3.502;2022-08-23T11:31:39;0.77;;;0.77;;
31798;SDS011;18374;51.136;3.502;2022-08-23T11:34:22;1.63;;;1.10;;
31798;SDS011;18374;51.136;3.502;2022-08-23T11:45:20;1.25;;;0.90;;
31798;SDS011;18374;51.136;3.502;2022-08-23T11:48:16;2.38;;;1.00;;
31798;SDS011;18374;51.136;3.502;2022-08-23T12:11:23;2.45;;;0.90;;
31798;SDS011;18374;51.136;3.502;2022-08-23T12:13:53;0.93;;;0.70;;
31798;SDS011;18374;51.136;3.502;2022-08-23T12:16:30;2.30;;;1.00;;
31798;SDS011;18374;51.136;3.502;2022-08-23T12:19:05;1.88;;;1.35;;
31798;SDS011;18374;51.136;3.502;2022-08-23T12:24:12;3.17;;;1.20;;
31798;SDS011;18374;51.136;3.502;2022-08-23T12:27:29;1.42;;;1.00;;
31798;SDS011;18374;51.136;3.502;2022-08-23T12:30:10;1.60;;;0.93;;
31798;SDS011;18374;51.136;3.502;2022-08-23T12:33:43;2.17;;;1.20;;
31798;SDS011;18374;51.136;3.502;2022-08-23T12:39:55;1.77;;;1.00;;
31798;SDS011;18374;51.136;3.502;2022-08-23T12:42:29;2.45;;;1.20;;
31798;SDS011;18374;51.136;3.502;2022-08-23T12:45:04;3.17;;;1.10;;
31798;SDS011;18374;51.136;3.502;2022-08-23T12:47:39;2.28;;;1.30;;
31798;SDS011;18374;51.136;3.502;2022-08-23T12:53:00;1.50;;;1.20;;
31798;SDS011;18374;51.136;3.502;2022-08-23T12:55:39;4.50;;;1.50;;
31798;SDS011;18374;51.136;3.502;2022-08-23T12:58:15;2.05;;;1.30;;
31798;SDS011;18374;51.136;3.502;2022-08-23T13:00:59;3.15;;;1.40;;
31798;SDS011;18374;51.136;3.502;2022-08-23T13:03:35;1.75;;;1.20;;
31798;SDS011;18374;51.136;3.502;2022-08-23T13:06:15;2.53;;;1.20;;
31798;SDS011;18374;51.136;3.502;2022-08-23T13:08:58;2.85;;;1.25;;
31798;SDS011;18374;51.136;3.502;2022-08-23T13:11:41;1.40;;;1.30;;
31798;SDS011;18374;51.136;3.502;2022-08-23T13:17:29;2.28;;;1.15;;
31798;SDS011;18374;51.136;3.502;2022-08-23T13:22:53;1.40;;;1.30;;
31798;SDS011;18374;51.136;3.502;2022-08-23T13:25:29;1.77;;;1.23;;
31798;SDS011;18374;51.136;3.502;2022-08-23T13:28:05;1.33;;;1.23;;
31798;SDS011;18374;51.136;3.502;2022-08-23T13:30:57;3.58;;;1.77;;
31798;SDS011;18374;51.136;3.502;2022-08-23T13:33:34;2.28;;;1.40;;
31798;SDS011;18374;51.136;3.502;2022-08-23T13:36:17;3.15;;;1.45;;
31798;SDS011;18374;51.136;3.502;2022-08-23T13:38:47;5.47;;;1.50;;
31798;SDS011;18374;51.136;3.502;2022-08-23T13:41:27;1.42;;;1.33;;
31798;SDS011;18374;51.136;3.502;2022-08-23T13:44:06;3.60;;;1.55;;
31798;SDS011;18374;51.136;3.502;2022-08-23T13:46:41;1.63;;;1.40;;
31798;SDS011;18374;51.136;3.502;2022-08-23T13:49:17;1.75;;;1.55;;
31798;SDS011;18374;51.136;3.502;2022-08-23T13:54:45;1.48;;;1.38;;
31798;SDS011;18374;51.136;3.502;2022-08-23T13:57:21;2.13;;;1.40;;
31798;SDS011;18374;51.136;3.502;2022-08-23T13:59:56;1.42;;;1.27;;
31798;SDS011;18374;51.136;3.502;2022-08-23T14:02:35;2.28;;;1.25;;
31798;SDS011;18374;51.136;3.502;2022-08-23T14:05:05;3.65;;;1.35;;
31798;SDS011;18374;51.136;3.502;2022-08-23T14:07:35;1.40;;;1.17;;
31798;SDS011;18374;51.136;3.502;2022-08-23T14:10:03;1.42;;;1.15;;
31798;SDS011;18374;51.136;3.502;2022-08-23T14:12:31;1.67;;;1.52;;
31798;SDS011;18374;51.136;3.502;2022-08-23T14:15:02;1.33;;;0.90;;
31798;SDS011;18374;51.136;3.502;2022-08-23T14:17:32;4.78;;;1.10;;
31798;SDS011;18374;51.136;3.502;2022-08-23T14:20:07;2.05;;;1.10;;
31798;SDS011;18374;51.136;3.502;2022-08-23T14:22:57;1.00;;;0.80;;
31798;SDS011;18374;51.136;3.502;2022-08-23T14:25:34;2.13;;;0.82;;
31798;SDS011;18374;51.136;3.502;2022-08-23T14:28:02;2.10;;;0.70;;
31798;SDS011;18374;51.136;3.502;2022-08-23T14:30:31;3.25;;;0.70;;
31798;SDS011;18374;51.136;3.502;2022-08-23T14:33:03;1.08;;;0.98;;
31798;SDS011;18374;51.136;3.502;2022-08-23T14:35:32;3.97;;;1.00;;
31798;SDS011;18374;51.136;3.502;2022-08-23T14:38:00;0.93;;;0.70;;
31798;SDS011;18374;51.136;3.502;2022-08-23T14:40:30;1.48;;;0.80;;
31798;SDS011;18374;51.136;3.502;2022-08-23T14:42:59;3.05;;;0.70;;
31798;SDS011;18374;51.136;3.502;2022-08-23T14:45:27;1.05;;;0.68;;
31798;SDS011;18374;51.136;3.502;2022-08-23T14:48:03;3.53;;;0.90;;
31798;SDS011;18374;51.136;3.502;2022-08-23T14:50:32;0.70;;;0.65;;
31798;SDS011;18374;51.136;3.502;2022-08-23T14:53:02;1.20;;;0.98;;
31798;SDS011;18374;51.136;3.502;2022-08-23T14:55:31;0.70;;;0.70;;
31798;SDS011;18374;51.136;3.502;2022-08-23T14:57:59;1.15;;;0.88;;
31798;SDS011;18374;51.136;3.502;2022-08-23T15:00:29;0.93;;;0.68;;
31798;SDS011;18374;51.136;3.502;2022-08-23T15:02:58;1.45;;;0.65;;
31798;SDS011;18374;51.136;3.502;2022-08-23T15:05:26;2.22;;;0.90;;
31798;SDS011;18374;51.136;3.502;2022-08-23T15:07:53;2.35;;;0.50;;
31798;SDS011;18374;51.136;3.502;2022-08-23T15:10:21;1.35;;;0.70;;
31798;SDS011;18374;51.136;3.502;2022-08-23T15:13:09;2.40;;;0.75;;
31798;SDS011;18374;51.136;3.502;2022-08-23T15:15:55;2.78;;;0.70;;
31798;SDS011;18374;51.136;3.502;2022-08-23T15:18:41;0.52;;;0.50;;
31798;SDS011;18374;51.136;3.502;2022-08-23T15:21:30;0.50;;;0.50;;
31798;SDS011;18374;51.136;3.502;2022-08-23T15:24:24;1.48;;;0.70;;
31798;SDS011;18374;51.136;3.502;2022-08-23T15:26:54;0.85;;;0.43;;
31798;SDS011;18374;51.136;3.502;2022-08-23T15:29:26;6.55;;;0.57;;
31798;SDS011;18374;51.136;3.502;2022-08-23T15:31:54;1.73;;;0.55;;
31798;SDS011;18374;51.136;3.502;2022-08-23T15:34:32;0.85;;;0.50;;
31798;SDS011;18374;51.136;3.502;2022-08-23T15:37:28;1.45;;;0.63;;
31798;SDS011;18374;51.136;3.502;2022-08-23T15:39:56;2.35;;;0.47;;
31798;SDS011;18374;51.136;3.502;2022-08-23T15:42:29;2.22;;;0.40;;
31798;SDS011;18374;51.136;3.502;2022-08-23T15:44:57;0.95;;;0.60;;
31798;SDS011;18374;51.136;3.502;2022-08-23T15:47:28;0.50;;;0.50;;
31798;SDS011;18374;51.136;3.502;2022-08-23T15:52:30;0.50;;;0.50;;
31798;SDS011;18374;51.136;3.502;2022-08-23T15:54:58;0.70;;;0.50;;
31798;SDS011;18374;51.136;3.502;2022-08-23T15:57:28;0.93;;;0.50;;
31798;SDS011;18374;51.136;3.502;2022-08-23T16:00:15;1.27;;;0.50;;
31798;SDS011;18374;51.136;3.502;2022-08-23T16:02:46;1.42;;;0.50;;
31798;SDS011;18374;51.136;3.502;2022-08-23T16:05:37;1.30;;;0.90;;
31798;SDS011;18374;51.136;3.502;2022-08-23T16:08:08;1.80;;;0.45;;
31798;SDS011;18374;51.136;3.502;2022-08-23T16:10:58;0.75;;;0.47;;
31798;SDS011;18374;51.136;3.502;2022-08-23T16:13:35;0.70;;;0.40;;
31798;SDS011;18374;51.136;3.502;2022-08-23T16:18:45;0.30;;;0.30;;
31798;SDS011;18374;51.136;3.502;2022-08-23T16:21:15;3.50;;;0.70;;
31798;SDS011;18374;51.136;3.502;2022-08-23T16:23:43;2.72;;;0.50;;
31798;SDS011;18374;51.136;3.502;2022-08-23T16:26:12;1.42;;;0.40;;
31798;SDS011;18374;51.136;3.502;2022-08-23T16:28:48;0.40;;;0.40;;
31798;SDS011;18374;51.136;3.502;2022-08-23T16:31:20;0.85;;;0.60;;
31798;SDS011;18374;51.136;3.502;2022-08-23T16:34:06;3.37;;;1.10;;
31798;SDS011;18374;51.136;3.502;2022-08-23T16:36:40;5.75;;;1.02;;
31798;SDS011;18374;51.136;3.502;2022-08-23T16:39:13;4.07;;;1.13;;
31798;SDS011;18374;51.136;3.502;2022-08-23T16:41:42;4.00;;;0.95;;
31798;SDS011;18374;51.136;3.502;2022-08-23T16:44:09;4.95;;;1.27;;
31798;SDS011;18374;51.136;3.502;2022-08-23T16:46:38;5.03;;;1.20;;
31798;SDS011;18374;51.136;3.502;2022-08-23T16:49:12;3.75;;;0.75;;
31798;SDS011;18374;51.136;3.502;2022-08-23T16:51:45;1.92;;;1.00;;
31798;SDS011;18374;51.136;3.502;2022-08-23T16:54:13;2.00;;;0.95;;
31798;SDS011;18374;51.136;3.502;2022-08-23T16:56:42;3.67;;;0.90;;
31798;SDS011;18374;51.136;3.502;2022-08-23T16:59:10;2.92;;;0.90;;
31798;SDS011;18374;51.136;3.502;2022-08-23T17:04:14;1.75;;;1.00;;
31798;SDS011;18374;51.136;3.502;2022-08-23T17:06:43;3.03;;;0.95;;
31798;SDS011;18374;51.136;3.502;2022-08-23T17:09:13;3.50;;;0.85;;
31798;SDS011;18374;51.136;3.502;2022-08-23T17:11:41;2.30;;;0.90;;
31798;SDS011;18374;51.136;3.502;2022-08-23T17:14:10;8.35;;;1.00;;
31798;SDS011;18374;51.136;3.502;2022-08-23T17:16:39;2.97;;;1.15;;
31798;SDS011;18374;51.136;3.502;2022-08-23T17:19:07;1.50;;;0.90;;
31798;SDS011;18374;51.136;3.502;2022-08-23T17:21:37;8.68;;;1.40;;
31798;SDS011;18374;51.136;3.502;2022-08-23T17:24:06;6.72;;;1.10;;
31798;SDS011;18374;51.136;3.502;2022-08-23T17:26:35;3.22;;;0.90;;
31798;SDS011;18374;51.136;3.502;2022-08-23T17:29:03;2.30;;;1.00;;
31798;SDS011;18374;51.136;3.502;2022-08-23T17:31:31;3.28;;;1.30;;
31798;SDS011;18374;51.136;3.502;2022-08-23T17:33:59;3.22;;;1.30;;
31798;SDS011;18374;51.136;3.502;2022-08-23T17:39:06;1.87;;;0.87;;